sensor_id;sensor_type;location;lat;lon;timestamp;pressure;altitude;pressure_sealevel;temperature
70819;BMP280;58439;51.046;13.692;2022-10-16T00:08:17;99870.44;;;13.88
70819;BMP280;58439;51.046;13.692;2022-10-16T00:26:59;99893.06;;;13.89
70819;BMP280;58439;51.046;13.692;2022-10-16T01:12:59;99908.22;;;13.50
70819;BMP280;58439;51.046;13.692;2022-10-16T01:15:37;99909.41;;;13.48
70819;BMP280;58439;51.046;13.692;2022-10-16T01:18:43;99913.69;;;13.49
70819;BMP280;58439;51.046;13.692;2022-10-16T01:21:22;99914.88;;;13.53
70819;BMP280;58439;51.046;13.692;2022-10-16T01:24:22;99920.38;;;13.70
70819;BMP280;58439;51.046;13.692;2022-10-16T01:29:54;99920.66;;;13.98
70819;BMP280;58439;51.046;13.692;2022-10-16T01:32:39;99923.00;;;14.06
70819;BMP280;58439;51.046;13.692;2022-10-16T01:35:30;99929.44;;;14.10
70819;BMP280;58439;51.046;13.692;2022-10-16T01:41:04;99938.06;;;14.17
70819;BMP280;58439;51.046;13.692;2022-10-16T01:43:46;99932.53;;;14.26
70819;BMP280;58439;51.046;13.692;2022-10-16T01:46:18;99928.78;;;14.33
70819;BMP280;58439;51.046;13.692;2022-10-16T02:08:17;99930.59;;;14.51
70819;BMP280;58439;51.046;13.692;2022-10-16T02:10:45;99934.41;;;14.55
70819;BMP280;58439;51.046;13.692;2022-10-16T02:13:46;99931.88;;;14.60
70819;BMP280;58439;51.046;13.692;2022-10-16T02:16:42;99932.00;;;14.65
70819;BMP280;58439;51.046;13.692;2022-10-16T02:19:12;99937.66;;;14.69
70819;BMP280;58439;51.046;13.692;2022-10-16T02:22:16;99946.50;;;14.74
70819;BMP280;58439;51.046;13.692;2022-10-16T02:46:51;99936.84;;;14.98
70819;BMP280;58439;51.046;13.692;2022-10-16T02:49:51;99946.09;;;15.01
70819;BMP280;58439;51.046;13.692;2022-10-16T02:52:25;99940.63;;;15.02
70819;BMP280;58439;51.046;13.692;2022-10-16T02:54:54;99928.03;;;15.04
70819;BMP280;58439;51.046;13.692;2022-10-16T02:57:21;99930.44;;;15.06
70819;BMP280;58439;51.046;13.692;2022-10-16T02:59:49;99925.63;;;15.03
70819;BMP280;58439;51.046;13.692;2022-10-16T03:02:16;99921.34;;;14.90
70819;BMP280;58439;51.046;13.692;2022-10-16T03:44:06;99949.69;;;14.10
70819;BMP280;58439;51.046;13.692;2022-10-16T03:46:33;99955.38;;;14.07
70819;BMP280;58439;51.046;13.692;2022-10-16T03:49:01;99963.50;;;14.05
70819;BMP280;58439;51.046;13.692;2022-10-16T03:51:33;99960.50;;;14.02
70819;BMP280;58439;51.046;13.692;2022-10-16T03:54:00;99956.47;;;13.99
70819;BMP280;58439;51.046;13.692;2022-10-16T03:56:28;99972.25;;;13.99
70819;BMP280;58439;51.046;13.692;2022-10-16T03:58:55;99965.19;;;14.00
70819;BMP280;58439;51.046;13.692;2022-10-16T04:12:21;99981.41;;;14.15
70819;BMP280;58439;51.046;13.692;2022-10-16T04:31:28;99971.47;;;14.35
70819;BMP280;58439;51.046;13.692;2022-10-16T04:33:55;99980.84;;;14.31
70819;BMP280;58439;51.046;13.692;2022-10-16T04:36:32;99993.16;;;14.31
70819;BMP280;58439;51.046;13.692;2022-10-16T04:39:27;99994.81;;;14.32
70819;BMP280;58439;51.046;13.692;2022-10-16T04:42:22;99997.78;;;14.35
70819;BMP280;58439;51.046;13.692;2022-10-16T04:44:56;99991.28;;;14.38
70819;BMP280;58439;51.046;13.692;2022-10-16T04:47:26;99997.91;;;14.40
70819;BMP280;58439;51.046;13.692;2022-10-16T04:49:54;100003.19;;;14.40
70819;BMP280;58439;51.046;13.692;2022-10-16T04:52:48;100004.78;;;14.41
70819;BMP280;58439;51.046;13.692;2022-10-16T04:55:22;100000.94;;;14.44
70819;BMP280;58439;51.046;13.692;2022-10-16T04:57:49;99992.00;;;14.45
70819;BMP280;58439;51.046;13.692;2022-10-16T05:00:17;99984.13;;;14.45
70819;BMP280;58439;51.046;13.692;2022-10-16T05:02:44;99989.81;;;14.42
70819;BMP280;58439;51.046;13.692;2022-10-16T05:05:11;100006.06;;;14.39
70819;BMP280;58439;51.046;13.692;2022-10-16T05:07:42;100005.22;;;14.38
70819;BMP280;58439;51.046;13.692;2022-10-16T05:10:17;100007.69;;;14.40
70819;BMP280;58439;51.046;13.692;2022-10-16T05:12:44;100008.22;;;14.42
70819;BMP280;58439;51.046;13.692;2022-10-16T05:15:11;100009.03;;;14.42
70819;BMP280;58439;51.046;13.692;2022-10-16T05:17:38;100000.56;;;14.40
70819;BMP280;58439;51.046;13.692;2022-10-16T05:20:13;100005.03;;;14.40
70819;BMP280;58439;51.046;13.692;2022-10-16T05:22:40;100001.97;;;14.43
70819;BMP280;58439;51.046;13.692;2022-10-16T05:25:07;100009.19;;;14.47
70819;BMP280;58439;51.046;13.692;2022-10-16T05:27:50;100012.81;;;14.46
70819;BMP280;58439;51.046;13.692;2022-10-16T05:46:05;100028.34;;;14.55
70819;BMP280;58439;51.046;13.692;2022-10-16T05:48:52;100024.88;;;14.54
70819;BMP280;58439;51.046;13.692;2022-10-16T05:52:10;100036.38;;;14.60
70819;BMP280;58439;51.046;13.692;2022-10-16T05:58:52;100057.22;;;14.61
70819;BMP280;58439;51.046;13.692;2022-10-16T06:02:24;100047.44;;;14.68
70819;BMP280;58439;51.046;13.692;2022-10-16T06:05:26;100042.03;;;14.63
70819;BMP280;58439;51.046;13.692;2022-10-16T06:08:03;100043.38;;;14.66
70819;BMP280;58439;51.046;13.692;2022-10-16T06:11:16;100046.63;;;14.68
70819;BMP280;58439;51.046;13.692;2022-10-16T06:15:08;100057.22;;;14.80
70819;BMP280;58439;51.046;13.692;2022-10-16T06:17:35;100062.97;;;14.88
70819;BMP280;58439;51.046;13.692;2022-10-16T06:20:03;100069.69;;;15.02
70819;BMP280;58439;51.046;13.692;2022-10-16T06:22:48;100072.84;;;15.23
70819;BMP280;58439;51.046;13.692;2022-10-16T06:25:15;100083.22;;;15.36
70819;BMP280;58439;51.046;13.692;2022-10-16T06:54:31;100102.72;;;16.23
70819;BMP280;58439;51.046;13.692;2022-10-16T06:57:34;100104.81;;;16.21
70819;BMP280;58439;51.046;13.692;2022-10-16T07:00:03;100110.63;;;16.23
70819;BMP280;58439;51.046;13.692;2022-10-16T07:02:30;100106.16;;;16.24
70819;BMP280;58439;51.046;13.692;2022-10-16T07:04:57;100117.66;;;16.30
70819;BMP280;58439;51.046;13.692;2022-10-16T07:07:25;100123.63;;;16.37
70819;BMP280;58439;51.046;13.692;2022-10-16T07:09:53;100116.34;;;16.44
70819;BMP280;58439;51.046;13.692;2022-10-16T07:12:20;100116.34;;;16.55
70819;BMP280;58439;51.046;13.692;2022-10-16T07:14:47;100116.63;;;16.82
70819;BMP280;58439;51.046;13.692;2022-10-16T07:17:14;100114.97;;;17.05
70819;BMP280;58439;51.046;13.692;2022-10-16T07:19:42;100128.22;;;17.22
70819;BMP280;58439;51.046;13.692;2022-10-16T07:22:09;100132.16;;;17.19
70819;BMP280;58439;51.046;13.692;2022-10-16T07:24:36;100147.91;;;17.14
70819;BMP280;58439;51.046;13.692;2022-10-16T07:27:03;100154.72;;;16.98
70819;BMP280;58439;51.046;13.692;2022-10-16T07:29:31;100164.53;;;16.86
70819;BMP280;58439;51.046;13.692;2022-10-16T07:31:58;100167.88;;;16.81
70819;BMP280;58439;51.046;13.692;2022-10-16T07:34:25;100175.34;;;16.84
70819;BMP280;58439;51.046;13.692;2022-10-16T07:36:53;100175.91;;;16.86
70819;BMP280;58439;51.046;13.692;2022-10-16T07:39:20;100180.28;;;16.93
70819;BMP280;58439;51.046;13.692;2022-10-16T07:41:48;100183.00;;;16.98
70819;BMP280;58439;51.046;13.692;2022-10-16T07:44:16;100187.13;;;17.05
70819;BMP280;58439;51.046;13.692;2022-10-16T07:46:43;100186.03;;;17.18
70819;BMP280;58439;51.046;13.692;2022-10-16T07:49:10;100192.56;;;17.27
70819;BMP280;58439;51.046;13.692;2022-10-16T07:51:38;100195.59;;;17.48
70819;BMP280;58439;51.046;13.692;2022-10-16T07:54:09;100198.63;;;17.85
70819;BMP280;58439;51.046;13.692;2022-10-16T07:56:36;100194.19;;;18.24
70819;BMP280;58439;51.046;13.692;2022-10-16T07:59:10;100202.06;;;18.35
70819;BMP280;58439;51.046;13.692;2022-10-16T08:01:37;100196.91;;;18.46
70819;BMP280;58439;51.046;13.692;2022-10-16T08:04:05;100191.09;;;18.65
70819;BMP280;58439;51.046;13.692;2022-10-16T08:06:41;100176.47;;;18.85
70819;BMP280;58439;51.046;13.692;2022-10-16T08:09:26;100163.81;;;18.92
70819;BMP280;58439;51.046;13.692;2022-10-16T08:12:09;100152.50;;;18.75
70819;BMP280;58439;51.046;13.692;2022-10-16T08:14:50;100177.69;;;18.55
70819;BMP280;58439;51.046;13.692;2022-10-16T08:17:17;100182.28;;;18.43
70819;BMP280;58439;51.046;13.692;2022-10-16T08:19:46;100189.53;;;18.31
70819;BMP280;58439;51.046;13.692;2022-10-16T08:22:18;100185.44;;;18.40
70819;BMP280;58439;51.046;13.692;2022-10-16T08:24:46;100180.16;;;18.62
70819;BMP280;58439;51.046;13.692;2022-10-16T08:27:31;100185.22;;;19.07
70819;BMP280;58439;51.046;13.692;2022-10-16T08:29:59;100185.78;;;19.36
70819;BMP280;58439;51.046;13.692;2022-10-16T08:35:58;100190.13;;;19.47
70819;BMP280;58439;51.046;13.692;2022-10-16T08:38:25;100198.97;;;19.58
70819;BMP280;58439;51.046;13.692;2022-10-16T08:47:39;100198.25;;;20.00
70819;BMP280;58439;51.046;13.692;2022-10-16T08:50:22;100199.06;;;20.05
70819;BMP280;58439;51.046;13.692;2022-10-16T08:52:51;100189.63;;;20.19
70819;BMP280;58439;51.046;13.692;2022-10-16T08:55:49;100187.75;;;20.20
70819;BMP280;58439;51.046;13.692;2022-10-16T08:58:29;100189.34;;;20.16
70819;BMP280;58439;51.046;13.692;2022-10-16T09:01:01;100188.22;;;20.07
70819;BMP280;58439;51.046;13.692;2022-10-16T09:13:51;100181.22;;;21.10
70819;BMP280;58439;51.046;13.692;2022-10-16T09:16:36;100172.94;;;21.27
70819;BMP280;58439;51.046;13.692;2022-10-16T09:24:06;100190.94;;;22.91
70819;BMP280;58439;51.046;13.692;2022-10-16T09:26:35;100196.00;;;23.27
70819;BMP280;58439;51.046;13.692;2022-10-16T09:29:03;100200.25;;;23.33
70819;BMP280;58439;51.046;13.692;2022-10-16T09:31:57;100197.81;;;22.97
70819;BMP280;58439;51.046;13.692;2022-10-16T09:38:35;100209.63;;;22.86
70819;BMP280;58439;51.046;13.692;2022-10-16T09:41:29;100201.13;;;22.79
70819;BMP280;58439;51.046;13.692;2022-10-16T09:44:01;100206.84;;;23.06
70819;BMP280;58439;51.046;13.692;2022-10-16T09:46:46;100212.00;;;23.32
70819;BMP280;58439;51.046;13.692;2022-10-16T09:49:39;100220.84;;;23.56
70819;BMP280;58439;51.046;13.692;2022-10-16T09:52:41;100202.22;;;23.51
70819;BMP280;58439;51.046;13.692;2022-10-16T09:55:17;100210.53;;;23.44
70819;BMP280;58439;51.046;13.692;2022-10-16T09:57:52;100219.88;;;23.76
70819;BMP280;58439;51.046;13.692;2022-10-16T10:00:22;100224.09;;;24.54
70819;BMP280;58439;51.046;13.692;2022-10-16T10:02:50;100218.69;;;24.96
70819;BMP280;58439;51.046;13.692;2022-10-16T10:05:25;100217.88;;;24.96
70819;BMP280;58439;51.046;13.692;2022-10-16T10:07:57;100224.75;;;24.83
70819;BMP280;58439;51.046;13.692;2022-10-16T10:10:30;100229.34;;;24.40
70819;BMP280;58439;51.046;13.692;2022-10-16T10:13:00;100222.94;;;24.60
70819;BMP280;58439;51.046;13.692;2022-10-16T10:15:35;100225.63;;;26.17
70819;BMP280;58439;51.046;13.692;2022-10-16T10:18:27;100231.69;;;26.72
70819;BMP280;58439;51.046;13.692;2022-10-16T10:21:15;100240.53;;;26.95
70819;BMP280;58439;51.046;13.692;2022-10-16T10:23:43;100238.56;;;27.54
70819;BMP280;58439;51.046;13.692;2022-10-16T10:26:20;100236.84;;;29.86
70819;BMP280;58439;51.046;13.692;2022-10-16T10:32:10;100243.88;;;28.59
70819;BMP280;58439;51.046;13.692;2022-10-16T10:35:29;100237.25;;;29.29
70819;BMP280;58439;51.046;13.692;2022-10-16T10:38:38;100249.94;;;27.90
70819;BMP280;58439;51.046;13.692;2022-10-16T10:41:29;100247.78;;;27.08
70819;BMP280;58439;51.046;13.692;2022-10-16T10:44:25;100251.59;;;27.78
70819;BMP280;58439;51.046;13.692;2022-10-16T10:56:47;100265.47;;;34.20
70819;BMP280;58439;51.046;13.692;2022-10-16T11:02:51;100254.97;;;34.60
70819;BMP280;58439;51.046;13.692;2022-10-16T11:06:01;100259.25;;;35.07
70819;BMP280;58439;51.046;13.692;2022-10-16T11:09:18;100246.00;;;29.93
70819;BMP280;58439;51.046;13.692;2022-10-16T11:11:55;100254.00;;;27.79
70819;BMP280;58439;51.046;13.692;2022-10-16T11:14:35;100257.06;;;27.86
70819;BMP280;58439;51.046;13.692;2022-10-16T11:17:38;100253.88;;;27.00
70819;BMP280;58439;51.046;13.692;2022-10-16T11:20:20;100257.53;;;27.97
70819;BMP280;58439;51.046;13.692;2022-10-16T11:22:55;100252.25;;;29.47
70819;BMP280;58439;51.046;13.692;2022-10-16T11:25:32;100254.28;;;29.03
70819;BMP280;58439;51.046;13.692;2022-10-16T11:28:14;100262.34;;;27.69
70819;BMP280;58439;51.046;13.692;2022-10-16T11:37:12;100258.25;;;25.18
70819;BMP280;58439;51.046;13.692;2022-10-16T11:39:43;100265.84;;;24.92
70819;BMP280;58439;51.046;13.692;2022-10-16T11:42:16;100264.03;;;24.69
70819;BMP280;58439;51.046;13.692;2022-10-16T11:45:07;100259.53;;;24.83
70819;BMP280;58439;51.046;13.692;2022-10-16T11:51:06;100266.78;;;25.39
70819;BMP280;58439;51.046;13.692;2022-10-16T12:00:43;100279.94;;;28.32
70819;BMP280;58439;51.046;13.692;2022-10-16T12:06:37;100281.00;;;35.07
70819;BMP280;58439;51.046;13.692;2022-10-16T12:09:23;100286.97;;;38.28
70819;BMP280;58439;51.046;13.692;2022-10-16T12:11:53;100285.72;;;35.92
70819;BMP280;58439;51.046;13.692;2022-10-16T12:17:36;100288.22;;;32.67
70819;BMP280;58439;51.046;13.692;2022-10-16T12:20:23;100291.97;;;30.05
70819;BMP280;58439;51.046;13.692;2022-10-16T12:22:55;100281.88;;;28.57
70819;BMP280;58439;51.046;13.692;2022-10-16T12:25:33;100278.81;;;28.16
70819;BMP280;58439;51.046;13.692;2022-10-16T12:28:05;100286.41;;;28.14
70819;BMP280;58439;51.046;13.692;2022-10-16T12:30:35;100288.38;;;27.91
70819;BMP280;58439;51.046;13.692;2022-10-16T12:33:22;100297.84;;;27.26
70819;BMP280;58439;51.046;13.692;2022-10-16T12:35:51;100301.81;;;27.29
70819;BMP280;58439;51.046;13.692;2022-10-16T12:38:27;100294.56;;;28.91
70819;BMP280;58439;51.046;13.692;2022-10-16T12:41:04;100291.53;;;29.65
70819;BMP280;58439;51.046;13.692;2022-10-16T12:48:50;100297.19;;;34.54
70819;BMP280;58439;51.046;13.692;2022-10-16T12:51:40;100307.28;;;35.48
70819;BMP280;58439;51.046;13.692;2022-10-16T12:54:26;100311.38;;;37.02
70819;BMP280;58439;51.046;13.692;2022-10-16T12:57:44;100299.78;;;37.19
70819;BMP280;58439;51.046;13.692;2022-10-16T13:00:38;100307.16;;;34.69
70819;BMP280;58439;51.046;13.692;2022-10-16T13:06:55;100310.47;;;31.92
70819;BMP280;58439;51.046;13.692;2022-10-16T13:09:43;100307.66;;;30.53
70819;BMP280;58439;51.046;13.692;2022-10-16T13:12:50;100300.63;;;33.11
70819;BMP280;58439;51.046;13.692;2022-10-16T13:18:16;100308.78;;;28.40
70819;BMP280;58439;51.046;13.692;2022-10-16T13:21:03;100303.75;;;26.79
70819;BMP280;58439;51.046;13.692;2022-10-16T13:24:11;100308.59;;;25.86
70819;BMP280;58439;51.046;13.692;2022-10-16T13:26:55;100306.56;;;25.78
70819;BMP280;58439;51.046;13.692;2022-10-16T13:29:23;100303.19;;;25.72
70819;BMP280;58439;51.046;13.692;2022-10-16T13:31:59;100295.63;;;25.42
70819;BMP280;58439;51.046;13.692;2022-10-16T13:34:28;100300.81;;;25.01
70819;BMP280;58439;51.046;13.692;2022-10-16T13:36:55;100303.63;;;24.67
70819;BMP280;58439;51.046;13.692;2022-10-16T13:39:30;100308.63;;;24.31
70819;BMP280;58439;51.046;13.692;2022-10-16T13:44:43;100323.28;;;23.75
70819;BMP280;58439;51.046;13.692;2022-10-16T13:47:28;100324.22;;;23.95
70819;BMP280;58439;51.046;13.692;2022-10-16T13:50:06;100326.56;;;24.30
70819;BMP280;58439;51.046;13.692;2022-10-16T13:52:36;100330.09;;;24.73
70819;BMP280;58439;51.046;13.692;2022-10-16T13:55:17;100327.00;;;25.04
70819;BMP280;58439;51.046;13.692;2022-10-16T13:57:45;100319.16;;;25.45
70819;BMP280;58439;51.046;13.692;2022-10-16T14:00:25;100322.72;;;26.19
70819;BMP280;58439;51.046;13.692;2022-10-16T14:03:14;100327.34;;;25.86
70819;BMP280;58439;51.046;13.692;2022-10-16T14:05:55;100336.00;;;25.32
70819;BMP280;58439;51.046;13.692;2022-10-16T14:08:26;100330.97;;;24.88
70819;BMP280;58439;51.046;13.692;2022-10-16T14:10:58;100339.59;;;24.37
70819;BMP280;58439;51.046;13.692;2022-10-16T14:13:37;100338.91;;;23.97
70819;BMP280;58439;51.046;13.692;2022-10-16T14:16:23;100336.84;;;23.84
70819;BMP280;58439;51.046;13.692;2022-10-16T14:18:58;100340.84;;;23.87
70819;BMP280;58439;51.046;13.692;2022-10-16T14:21:30;100344.56;;;23.91
70819;BMP280;58439;51.046;13.692;2022-10-16T14:24:43;100345.19;;;23.77
70819;BMP280;58439;51.046;13.692;2022-10-16T14:27:35;100346.41;;;23.56
70819;BMP280;58439;51.046;13.692;2022-10-16T14:30:21;100340.88;;;23.47
70819;BMP280;58439;51.046;13.692;2022-10-16T14:33:04;100336.94;;;23.35
70819;BMP280;58439;51.046;13.692;2022-10-16T14:35:40;100342.59;;;23.23
70819;BMP280;58439;51.046;13.692;2022-10-16T14:38:19;100338.63;;;23.15
70819;BMP280;58439;51.046;13.692;2022-10-16T14:40:49;100342.94;;;23.11
70819;BMP280;58439;51.046;13.692;2022-10-16T14:43:34;100341.88;;;23.07
70819;BMP280;58439;51.046;13.692;2022-10-16T14:46:12;100340.81;;;23.08
70819;BMP280;58439;51.046;13.692;2022-10-16T14:48:44;100347.47;;;23.11
70819;BMP280;58439;51.046;13.692;2022-10-16T14:51:15;100349.84;;;23.12
70819;BMP280;58439;51.046;13.692;2022-10-16T14:53:43;100355.19;;;23.12
70819;BMP280;58439;51.046;13.692;2022-10-16T14:56:20;100350.13;;;23.16
70819;BMP280;58439;51.046;13.692;2022-10-16T14:58:51;100365.84;;;23.23
70819;BMP280;58439;51.046;13.692;2022-10-16T15:01:19;100362.34;;;23.27
70819;BMP280;58439;51.046;13.692;2022-10-16T15:03:47;100366.56;;;23.33
70819;BMP280;58439;51.046;13.692;2022-10-16T15:06:16;100370.84;;;23.34
70819;BMP280;58439;51.046;13.692;2022-10-16T15:08:43;100376.16;;;23.39
70819;BMP280;58439;51.046;13.692;2022-10-16T15:11:22;100377.47;;;23.37
70819;BMP280;58439;51.046;13.692;2022-10-16T15:14:12;100380.75;;;23.29
70819;BMP280;58439;51.046;13.692;2022-10-16T15:16:41;100375.69;;;23.27
70819;BMP280;58439;51.046;13.692;2022-10-16T15:19:09;100390.91;;;23.32
70819;BMP280;58439;51.046;13.692;2022-10-16T15:21:36;100388.25;;;23.27
70819;BMP280;58439;51.046;13.692;2022-10-16T15:24:12;100391.47;;;23.18
70819;BMP280;58439;51.046;13.692;2022-10-16T15:26:45;100391.50;;;23.08
70819;BMP280;58439;51.046;13.692;2022-10-16T15:29:16;100398.50;;;22.89
70819;BMP280;58439;51.046;13.692;2022-10-16T15:31:45;100391.91;;;22.61
70819;BMP280;58439;51.046;13.692;2022-10-16T15:34:14;100391.69;;;22.32
70819;BMP280;58439;51.046;13.692;2022-10-16T15:36:41;100400.44;;;22.07
70819;BMP280;58439;51.046;13.692;2022-10-16T15:39:16;100402.84;;;21.94
70819;BMP280;58439;51.046;13.692;2022-10-16T15:41:46;100406.81;;;21.81
70819;BMP280;58439;51.046;13.692;2022-10-16T15:44:46;100409.16;;;21.67
70819;BMP280;58439;51.046;13.692;2022-10-16T15:47:13;100414.19;;;21.53
70819;BMP280;58439;51.046;13.692;2022-10-16T15:49:43;100414.13;;;21.38
70819;BMP280;58439;51.046;13.692;2022-10-16T15:52:15;100416.41;;;21.19
70819;BMP280;58439;51.046;13.692;2022-10-16T15:54:43;100417.16;;;21.05
70819;BMP280;58439;51.046;13.692;2022-10-16T15:57:21;100422.88;;;20.86
70819;BMP280;58439;51.046;13.692;2022-10-16T15:59:50;100423.06;;;20.75
70819;BMP280;58439;51.046;13.692;2022-10-16T16:02:17;100425.34;;;20.61
70819;BMP280;58439;51.046;13.692;2022-10-16T16:04:44;100423.91;;;20.48
70819;BMP280;58439;51.046;13.692;2022-10-16T16:11:23;100441.09;;;20.09
70819;BMP280;58439;51.046;13.692;2022-10-16T16:16:42;100435.84;;;19.92
70819;BMP280;58439;51.046;13.692;2022-10-16T16:24:25;100452.81;;;19.64
70819;BMP280;58439;51.046;13.692;2022-10-16T16:27:02;100456.22;;;19.43
70819;BMP280;58439;51.046;13.692;2022-10-16T16:29:31;100452.47;;;19.22
70819;BMP280;58439;51.046;13.692;2022-10-16T16:32:02;100454.56;;;19.03
70819;BMP280;58439;51.046;13.692;2022-10-16T16:39:06;100472.88;;;18.71
70819;BMP280;58439;51.046;13.692;2022-10-16T16:49:03;100496.09;;;18.35
70819;BMP280;58439;51.046;13.692;2022-10-16T16:51:30;100498.41;;;18.32
70819;BMP280;58439;51.046;13.692;2022-10-16T16:53:59;100501.19;;;18.25
70819;BMP280;58439;51.046;13.692;2022-10-16T16:56:26;100501.66;;;18.22
70819;BMP280;58439;51.046;13.692;2022-10-16T16:58:56;100510.31;;;18.18
70819;BMP280;58439;51.046;13.692;2022-10-16T17:01:26;100515.41;;;18.07
70819;BMP280;58439;51.046;13.692;2022-10-16T17:03:56;100521.59;;;18.01
70819;BMP280;58439;51.046;13.692;2022-10-16T17:06:27;100519.56;;;17.92
70819;BMP280;58439;51.046;13.692;2022-10-16T17:08:58;100518.78;;;17.80
70819;BMP280;58439;51.046;13.692;2022-10-16T17:11:27;100517.72;;;17.69
70819;BMP280;58439;51.046;13.692;2022-10-16T17:13:56;100528.31;;;17.57
70819;BMP280;58439;51.046;13.692;2022-10-16T17:16:37;100526.34;;;17.53
70819;BMP280;58439;51.046;13.692;2022-10-16T17:19:09;100534.19;;;17.48
70819;BMP280;58439;51.046;13.692;2022-10-16T17:21:38;100542.31;;;17.46
70819;BMP280;58439;51.046;13.692;2022-10-16T17:24:05;100540.38;;;17.41
70819;BMP280;58439;51.046;13.692;2022-10-16T17:26:33;100545.66;;;17.30
70819;BMP280;58439;51.046;13.692;2022-10-16T17:29:04;100548.53;;;17.28
70819;BMP280;58439;51.046;13.692;2022-10-16T17:31:34;100543.91;;;17.24
70819;BMP280;58439;51.046;13.692;2022-10-16T17:34:06;100545.50;;;17.13
70819;BMP280;58439;51.046;13.692;2022-10-16T17:36:36;100547.22;;;17.07
70819;BMP280;58439;51.046;13.692;2022-10-16T17:39:07;100551.75;;;17.00
70819;BMP280;58439;51.046;13.692;2022-10-16T17:41:36;100557.50;;;16.97
70819;BMP280;58439;51.046;13.692;2022-10-16T17:44:05;100556.81;;;17.02
70819;BMP280;58439;51.046;13.692;2022-10-16T17:46:32;100567.41;;;17.02
70819;BMP280;58439;51.046;13.692;2022-10-16T17:49:06;100568.44;;;17.01
70819;BMP280;58439;51.046;13.692;2022-10-16T17:51:33;100572.91;;;17.00
70819;BMP280;58439;51.046;13.692;2022-10-16T17:54:01;100579.78;;;16.90
70819;BMP280;58439;51.046;13.692;2022-10-16T17:56:30;100578.84;;;16.84
70819;BMP280;58439;51.046;13.692;2022-10-16T17:59:00;100584.56;;;16.81
70819;BMP280;58439;51.046;13.692;2022-10-16T18:01:32;100587.47;;;16.91
70819;BMP280;58439;51.046;13.692;2022-10-16T18:04:05;100592.53;;;16.93
70819;BMP280;58439;51.046;13.692;2022-10-16T18:06:33;100599.00;;;16.97
70819;BMP280;58439;51.046;13.692;2022-10-16T18:09:02;100600.59;;;16.98
70819;BMP280;58439;51.046;13.692;2022-10-16T18:11:30;100603.84;;;17.00
70819;BMP280;58439;51.046;13.692;2022-10-16T18:13:58;100602.31;;;16.92
70819;BMP280;58439;51.046;13.692;2022-10-16T18:16:28;100611.13;;;16.86
70819;BMP280;58439;51.046;13.692;2022-10-16T18:18:58;100613.41;;;16.82
70819;BMP280;58439;51.046;13.692;2022-10-16T18:21:27;100607.53;;;16.80
70819;BMP280;58439;51.046;13.692;2022-10-16T18:23:56;100615.56;;;16.74
70819;BMP280;58439;51.046;13.692;2022-10-16T18:26:23;100624.16;;;16.69
70819;BMP280;58439;51.046;13.692;2022-10-16T18:28:53;100625.19;;;16.68
70819;BMP280;58439;51.046;13.692;2022-10-16T18:31:22;100624.56;;;16.66
70819;BMP280;58439;51.046;13.692;2022-10-16T18:33:53;100631.00;;;16.70
70819;BMP280;58439;51.046;13.692;2022-10-16T18:36:28;100642.88;;;16.68
70819;BMP280;58439;51.046;13.692;2022-10-16T18:39:00;100642.91;;;16.61
70819;BMP280;58439;51.046;13.692;2022-10-16T18:41:29;100640.94;;;16.57
70819;BMP280;58439;51.046;13.692;2022-10-16T18:43:58;100644.25;;;16.52
70819;BMP280;58439;51.046;13.692;2022-10-16T18:46:25;100640.63;;;16.46
70819;BMP280;58439;51.046;13.692;2022-10-16T18:48:54;100639.47;;;16.42
70819;BMP280;58439;51.046;13.692;2022-10-16T18:51:26;100639.22;;;16.44
70819;BMP280;58439;51.046;13.692;2022-10-16T18:53:58;100636.69;;;16.37
70819;BMP280;58439;51.046;13.692;2022-10-16T18:56:29;100631.00;;;16.34
70819;BMP280;58439;51.046;13.692;2022-10-16T18:59:00;100638.34;;;16.32
70819;BMP280;58439;51.046;13.692;2022-10-16T19:01:30;100637.91;;;16.35
70819;BMP280;58439;51.046;13.692;2022-10-16T19:04:02;100641.72;;;16.39
70819;BMP280;58439;51.046;13.692;2022-10-16T19:06:34;100642.47;;;16.46
70819;BMP280;58439;51.046;13.692;2022-10-16T19:09:02;100638.34;;;16.50
70819;BMP280;58439;51.046;13.692;2022-10-16T19:11:30;100635.66;;;16.57
70819;BMP280;58439;51.046;13.692;2022-10-16T19:13:58;100639.47;;;16.61
70819;BMP280;58439;51.046;13.692;2022-10-16T19:16:32;100645.69;;;16.66
70819;BMP280;58439;51.046;13.692;2022-10-16T19:19:04;100655.75;;;16.76
70819;BMP280;58439;51.046;13.692;2022-10-16T19:21:35;100654.69;;;16.83
70819;BMP280;58439;51.046;13.692;2022-10-16T19:24:03;100652.03;;;16.83
70819;BMP280;58439;51.046;13.692;2022-10-16T19:26:32;100656.94;;;16.80
70819;BMP280;58439;51.046;13.692;2022-10-16T19:29:06;100671.63;;;16.76
70819;BMP280;58439;51.046;13.692;2022-10-16T19:31:35;100662.84;;;16.75
70819;BMP280;58439;51.046;13.692;2022-10-16T19:34:03;100662.53;;;16.72
70819;BMP280;58439;51.046;13.692;2022-10-16T19:36:43;100661.56;;;16.66
70819;BMP280;58439;51.046;13.692;2022-10-16T19:42:25;100671.09;;;16.67
70819;BMP280;58439;51.046;13.692;2022-10-16T19:45:09;100670.09;;;16.68
70819;BMP280;58439;51.046;13.692;2022-10-16T20:03:38;100682.28;;;16.69
70819;BMP280;58439;51.046;13.692;2022-10-16T20:06:07;100685.47;;;16.71
70819;BMP280;58439;51.046;13.692;2022-10-16T20:08:35;100687.91;;;16.73
70819;BMP280;58439;51.046;13.692;2022-10-16T20:11:08;100678.38;;;16.72
70819;BMP280;58439;51.046;13.692;2022-10-16T20:13:39;100675.38;;;16.68
70819;BMP280;58439;51.046;13.692;2022-10-16T20:16:15;100681.50;;;16.62
70819;BMP280;58439;51.046;13.692;2022-10-16T20:18:47;100683.22;;;16.57
70819;BMP280;58439;51.046;13.692;2022-10-16T20:21:25;100678.50;;;16.59
70819;BMP280;58439;51.046;13.692;2022-10-16T20:23:53;100690.84;;;16.65
70819;BMP280;58439;51.046;13.692;2022-10-16T20:26:22;100687.97;;;16.66
70819;BMP280;58439;51.046;13.692;2022-10-16T20:28:51;100693.63;;;16.70